sensor_id;sensor_type;location;lat;lon;timestamp;temperature;humidity
55203;DHT22;41077;52.956;6.796;2023-07-31T00:01:55;15.90;99.90
55203;DHT22;41077;52.956;6.796;2023-07-31T00:04:21;15.90;99.90
55203;DHT22;41077;52.956;6.796;2023-07-31T00:36:02;15.80;99.90
55203;DHT22;41077;52.956;6.796;2023-07-31T00:53:05;15.70;99.90
55203;DHT22;41077;52.956;6.796;2023-07-31T01:49:56;15.60;99.90
55203;DHT22;41077;52.956;6.796;2023-07-31T01:52:21;15.40;99.90
55203;DHT22;41077;52.956;6.796;2023-07-31T01:54:47;15.40;99.90
55203;DHT22;41077;52.956;6.796;2023-07-31T01:57:13;15.40;99.90
55203;DHT22;41077;52.956;6.796;2023-07-31T01:59:38;15.40;99.90
55203;DHT22;41077;52.956;6.796;2023-07-31T02:04:30;15.40;99.90
55203;DHT22;41077;52.956;6.796;2023-07-31T02:06:56;15.40;99.90
55203;DHT22;41077;52.956;6.796;2023-07-31T02:09:21;15.40;99.90
55203;DHT22;41077;52.956;6.796;2023-07-31T02:11:47;15.40;99.90
55203;DHT22;41077;52.956;6.796;2023-07-31T02:14:13;15.40;99.90
55203;DHT22;41077;52.956;6.796;2023-07-31T02:16:38;15.40;99.90
55203;DHT22;41077;52.956;6.796;2023-07-31T02:19:04;15.40;99.90
55203;DHT22;41077;52.956;6.796;2023-07-31T02:21:30;15.40;99.90
55203;DHT22;41077;52.956;6.796;2023-07-31T02:23:55;15.40;99.90
55203;DHT22;41077;52.956;6.796;2023-07-31T02:26:21;15.40;99.90
55203;DHT22;41077;52.956;6.796;2023-07-31T02:28:46;15.30;99.90
55203;DHT22;41077;52.956;6.796;2023-07-31T02:31:12;15.40;99.90
55203;DHT22;41077;52.956;6.796;2023-07-31T02:33:38;15.40;99.90
55203;DHT22;41077;52.956;6.796;2023-07-31T02:36:03;15.40;99.90
55203;DHT22;41077;52.956;6.796;2023-07-31T02:38:29;15.40;99.90
55203;DHT22;41077;52.956;6.796;2023-07-31T02:40:55;15.40;99.90
55203;DHT22;41077;52.956;6.796;2023-07-31T02:43:20;15.40;99.90
55203;DHT22;41077;52.956;6.796;2023-07-31T02:45:51;15.50;99.90
55203;DHT22;41077;52.956;6.796;2023-07-31T02:48:17;15.50;99.90
55203;DHT22;41077;52.956;6.796;2023-07-31T02:50:42;15.40;99.90
55203;DHT22;41077;52.956;6.796;2023-07-31T02:53:08;15.50;99.90
55203;DHT22;41077;52.956;6.796;2023-07-31T02:55:34;15.50;99.90
55203;DHT22;41077;52.956;6.796;2023-07-31T02:57:59;15.50;99.90
55203;DHT22;41077;52.956;6.796;2023-07-31T03:00:25;15.50;99.90
55203;DHT22;41077;52.956;6.796;2023-07-31T03:02:51;15.50;99.90
55203;DHT22;41077;52.956;6.796;2023-07-31T03:05:16;15.50;99.90
55203;DHT22;41077;52.956;6.796;2023-07-31T03:07:42;15.50;99.90
55203;DHT22;41077;52.956;6.796;2023-07-31T03:10:08;15.50;99.90
55203;DHT22;41077;52.956;6.796;2023-07-31T03:12:34;15.60;99.90
55203;DHT22;41077;52.956;6.796;2023-07-31T03:14:59;15.50;99.90
55203;DHT22;41077;52.956;6.796;2023-07-31T03:17:25;15.50;99.90
55203;DHT22;41077;52.956;6.796;2023-07-31T03:19:51;15.50;99.90
55203;DHT22;41077;52.956;6.796;2023-07-31T03:22:16;15.60;99.90
55203;DHT22;41077;52.956;6.796;2023-07-31T03:24:42;15.60;99.90
55203;DHT22;41077;52.956;6.796;2023-07-31T03:27:07;15.60;99.90
55203;DHT22;41077;52.956;6.796;2023-07-31T03:29:33;15.70;99.90
55203;DHT22;41077;52.956;6.796;2023-07-31T03:31:59;15.70;99.90
55203;DHT22;41077;52.956;6.796;2023-07-31T03:34:25;15.70;99.90
55203;DHT22;41077;52.956;6.796;2023-07-31T03:36:50;15.70;99.90
55203;DHT22;41077;52.956;6.796;2023-07-31T03:39:16;15.70;99.90
55203;DHT22;41077;52.956;6.796;2023-07-31T03:41:41;15.70;99.90
55203;DHT22;41077;52.956;6.796;2023-07-31T03:44:07;15.70;99.90
55203;DHT22;41077;52.956;6.796;2023-07-31T03:46:33;15.70;99.90
55203;DHT22;41077;52.956;6.796;2023-07-31T03:49:00;15.70;99.90
55203;DHT22;41077;52.956;6.796;2023-07-31T03:51:25;15.70;99.90
55203;DHT22;41077;52.956;6.796;2023-07-31T03:53:51;15.70;99.90
55203;DHT22;41077;52.956;6.796;2023-07-31T03:56:17;15.70;99.90
55203;DHT22;41077;52.956;6.796;2023-07-31T03:58:42;15.70;99.90
55203;DHT22;41077;52.956;6.796;2023-07-31T04:01:08;15.70;99.90
55203;DHT22;41077;52.956;6.796;2023-07-31T04:03:34;15.70;99.90
55203;DHT22;41077;52.956;6.796;2023-07-31T04:05:59;15.70;99.90
55203;DHT22;41077;52.956;6.796;2023-07-31T04:08:25;15.80;99.90
55203;DHT22;41077;52.956;6.796;2023-07-31T04:10:50;15.80;99.90
55203;DHT22;41077;52.956;6.796;2023-07-31T04:13:16;15.80;99.90
55203;DHT22;41077;52.956;6.796;2023-07-31T04:15:42;15.80;99.90
55203;DHT22;41077;52.956;6.796;2023-07-31T04:18:07;15.90;99.90
55203;DHT22;41077;52.956;6.796;2023-07-31T04:20:33;15.90;99.90
55203;DHT22;41077;52.956;6.796;2023-07-31T04:22:59;15.90;99.90
55203;DHT22;41077;52.956;6.796;2023-07-31T04:25:25;15.90;99.90
55203;DHT22;41077;52.956;6.796;2023-07-31T04:27:50;15.90;99.90
55203;DHT22;41077;52.956;6.796;2023-07-31T04:30:16;15.90;99.90
55203;DHT22;41077;52.956;6.796;2023-07-31T04:32:42;15.90;99.90
55203;DHT22;41077;52.956;6.796;2023-07-31T04:35:08;15.90;99.90
55203;DHT22;41077;52.956;6.796;2023-07-31T04:37:33;15.90;99.90
55203;DHT22;41077;52.956;6.796;2023-07-31T04:39:59;15.90;99.90
55203;DHT22;41077;52.956;6.796;2023-07-31T04:42:25;15.90;99.90
55203;DHT22;41077;52.956;6.796;2023-07-31T04:44:50;16.00;99.90
55203;DHT22;41077;52.956;6.796;2023-07-31T04:47:18;16.00;99.90
55203;DHT22;41077;52.956;6.796;2023-07-31T04:49:44;16.00;99.90
55203;DHT22;41077;52.956;6.796;2023-07-31T04:52:09;15.90;99.90
55203;DHT22;41077;52.956;6.796;2023-07-31T04:54:35;16.00;99.90
55203;DHT22;41077;52.956;6.796;2023-07-31T04:57:01;16.00;99.90
55203;DHT22;41077;52.956;6.796;2023-07-31T04:59:26;16.00;99.90
55203;DHT22;41077;52.956;6.796;2023-07-31T05:01:52;15.90;99.90
55203;DHT22;41077;52.956;6.796;2023-07-31T05:04:18;16.00;99.90
55203;DHT22;41077;52.956;6.796;2023-07-31T05:06:43;16.00;99.90
55203;DHT22;41077;52.956;6.796;2023-07-31T05:09:09;16.00;99.90
55203;DHT22;41077;52.956;6.796;2023-07-31T05:11:35;16.00;99.90
55203;DHT22;41077;52.956;6.796;2023-07-31T05:14:01;16.00;99.90
55203;DHT22;41077;52.956;6.796;2023-07-31T05:16:27;16.00;99.90
55203;DHT22;41077;52.956;6.796;2023-07-31T05:18:52;16.00;99.90
55203;DHT22;41077;52.956;6.796;2023-07-31T05:21:18;16.00;99.90
55203;DHT22;41077;52.956;6.796;2023-07-31T05:23:44;16.00;99.90
55203;DHT22;41077;52.956;6.796;2023-07-31T05:26:09;16.00;99.90
55203;DHT22;41077;52.956;6.796;2023-07-31T05:28:36;16.10;99.90
55203;DHT22;41077;52.956;6.796;2023-07-31T05:31:05;16.10;99.90
55203;DHT22;41077;52.956;6.796;2023-07-31T05:33:31;16.10;99.90
55203;DHT22;41077;52.956;6.796;2023-07-31T05:35:57;16.20;99.90
55203;DHT22;41077;52.956;6.796;2023-07-31T05:38:22;16.30;99.90
55203;DHT22;41077;52.956;6.796;2023-07-31T05:40:48;16.30;99.90
55203;DHT22;41077;52.956;6.796;2023-07-31T05:43:14;16.30;99.90
55203;DHT22;41077;52.956;6.796;2023-07-31T05:45:41;16.30;99.90
55203;DHT22;41077;52.956;6.796;2023-07-31T05:48:07;16.40;99.90
55203;DHT22;41077;52.956;6.796;2023-07-31T05:50:33;16.50;99.90
55203;DHT22;41077;52.956;6.796;2023-07-31T05:52:59;16.50;99.90
55203;DHT22;41077;52.956;6.796;2023-07-31T05:55:25;16.70;99.90
55203;DHT22;41077;52.956;6.796;2023-07-31T05:57:54;16.60;99.90
55203;DHT22;41077;52.956;6.796;2023-07-31T06:00:20;16.70;99.90
55203;DHT22;41077;52.956;6.796;2023-07-31T06:02:47;16.70;99.90
55203;DHT22;41077;52.956;6.796;2023-07-31T06:05:12;16.70;99.90
55203;DHT22;41077;52.956;6.796;2023-07-31T06:07:38;16.60;99.90
55203;DHT22;41077;52.956;6.796;2023-07-31T06:10:04;16.70;99.90
55203;DHT22;41077;52.956;6.796;2023-07-31T06:12:34;16.70;99.90
55203;DHT22;41077;52.956;6.796;2023-07-31T06:15:01;16.60;99.90
55203;DHT22;41077;52.956;6.796;2023-07-31T06:17:27;16.70;99.90
55203;DHT22;41077;52.956;6.796;2023-07-31T06:19:53;16.70;99.90
55203;DHT22;41077;52.956;6.796;2023-07-31T06:22:19;16.60;99.90
55203;DHT22;41077;52.956;6.796;2023-07-31T06:24:46;16.60;99.90
55203;DHT22;41077;52.956;6.796;2023-07-31T06:27:11;16.70;99.90
55203;DHT22;41077;52.956;6.796;2023-07-31T06:29:37;16.70;99.90
55203;DHT22;41077;52.956;6.796;2023-07-31T06:32:03;16.70;99.90
55203;DHT22;41077;52.956;6.796;2023-07-31T06:34:29;16.70;99.90
55203;DHT22;41077;52.956;6.796;2023-07-31T06:36:55;16.70;99.90
55203;DHT22;41077;52.956;6.796;2023-07-31T06:39:21;16.80;99.90
55203;DHT22;41077;52.956;6.796;2023-07-31T06:41:47;16.80;99.90
55203;DHT22;41077;52.956;6.796;2023-07-31T06:44:12;16.80;99.90
55203;DHT22;41077;52.956;6.796;2023-07-31T06:46:38;16.80;99.90
55203;DHT22;41077;52.956;6.796;2023-07-31T06:49:04;16.80;99.90
55203;DHT22;41077;52.956;6.796;2023-07-31T06:51:29;16.90;99.90
55203;DHT22;41077;52.956;6.796;2023-07-31T06:53:57;16.90;99.90
55203;DHT22;41077;52.956;6.796;2023-07-31T06:56:23;16.90;99.90
55203;DHT22;41077;52.956;6.796;2023-07-31T06:58:49;16.90;99.90
55203;DHT22;41077;52.956;6.796;2023-07-31T07:01:14;16.90;99.90
55203;DHT22;41077;52.956;6.796;2023-07-31T07:03:40;17.00;99.90
55203;DHT22;41077;52.956;6.796;2023-07-31T07:06:05;17.00;99.90
55203;DHT22;41077;52.956;6.796;2023-07-31T07:08:31;17.00;99.90
55203;DHT22;41077;52.956;6.796;2023-07-31T07:10:57;17.00;99.90
55203;DHT22;41077;52.956;6.796;2023-07-31T07:13:22;16.90;99.90
55203;DHT22;41077;52.956;6.796;2023-07-31T07:15:48;17.00;99.90
55203;DHT22;41077;52.956;6.796;2023-07-31T07:18:14;17.00;99.90
55203;DHT22;41077;52.956;6.796;2023-07-31T07:20:45;16.90;99.90
55203;DHT22;41077;52.956;6.796;2023-07-31T07:23:11;16.90;99.90
55203;DHT22;41077;52.956;6.796;2023-07-31T07:25:39;16.90;99.90
55203;DHT22;41077;52.956;6.796;2023-07-31T07:28:05;16.80;99.90
55203;DHT22;41077;52.956;6.796;2023-07-31T07:30:31;16.80;99.90
55203;DHT22;41077;52.956;6.796;2023-07-31T07:32:57;16.80;99.90
55203;DHT22;41077;52.956;6.796;2023-07-31T07:35:22;16.70;99.90
55203;DHT22;41077;52.956;6.796;2023-07-31T07:37:49;16.70;99.90
55203;DHT22;41077;52.956;6.796;2023-07-31T07:40:15;16.70;99.90
55203;DHT22;41077;52.956;6.796;2023-07-31T07:42:41;16.80;99.90
55203;DHT22;41077;52.956;6.796;2023-07-31T07:45:07;16.80;99.90
55203;DHT22;41077;52.956;6.796;2023-07-31T07:47:33;16.80;99.90
55203;DHT22;41077;52.956;6.796;2023-07-31T07:49:59;16.80;99.90
55203;DHT22;41077;52.956;6.796;2023-07-31T07:52:24;16.80;99.90
55203;DHT22;41077;52.956;6.796;2023-07-31T07:54:50;16.70;99.90
55203;DHT22;41077;52.956;6.796;2023-07-31T07:57:16;16.80;99.90
55203;DHT22;41077;52.956;6.796;2023-07-31T07:59:42;16.80;99.90
55203;DHT22;41077;52.956;6.796;2023-07-31T08:02:07;16.90;99.90
55203;DHT22;41077;52.956;6.796;2023-07-31T08:04:33;16.90;99.90
55203;DHT22;41077;52.956;6.796;2023-07-31T08:06:59;17.00;99.90
55203;DHT22;41077;52.956;6.796;2023-07-31T08:09:24;17.00;99.90
55203;DHT22;41077;52.956;6.796;2023-07-31T08:11:50;16.90;99.90
55203;DHT22;41077;52.956;6.796;2023-07-31T08:14:16;16.80;99.90
55203;DHT22;41077;52.956;6.796;2023-07-31T08:16:42;16.80;99.90
55203;DHT22;41077;52.956;6.796;2023-07-31T08:19:08;16.80;99.90
55203;DHT22;41077;52.956;6.796;2023-07-31T08:21:33;16.90;99.90
55203;DHT22;41077;52.956;6.796;2023-07-31T08:23:59;16.90;99.90
55203;DHT22;41077;52.956;6.796;2023-07-31T08:26:25;16.90;99.90
55203;DHT22;41077;52.956;6.796;2023-07-31T08:28:51;16.90;99.90
55203;DHT22;41077;52.956;6.796;2023-07-31T08:31:16;17.00;99.90
55203;DHT22;41077;52.956;6.796;2023-07-31T08:33:43;17.00;99.90
55203;DHT22;41077;52.956;6.796;2023-07-31T08:36:09;17.00;99.90
55203;DHT22;41077;52.956;6.796;2023-07-31T08:38:35;17.00;99.90
55203;DHT22;41077;52.956;6.796;2023-07-31T08:41:03;17.10;99.90
55203;DHT22;41077;52.956;6.796;2023-07-31T08:43:29;17.10;99.90
55203;DHT22;41077;52.956;6.796;2023-07-31T08:45:55;17.20;99.90
55203;DHT22;41077;52.956;6.796;2023-07-31T08:48:23;17.20;99.90
55203;DHT22;41077;52.956;6.796;2023-07-31T08:50:50;17.20;99.90
55203;DHT22;41077;52.956;6.796;2023-07-31T08:53:16;17.10;99.90
55203;DHT22;41077;52.956;6.796;2023-07-31T08:55:43;17.20;99.90
55203;DHT22;41077;52.956;6.796;2023-07-31T08:58:10;17.30;99.90
55203;DHT22;41077;52.956;6.796;2023-07-31T09:00:38;17.30;99.90
55203;DHT22;41077;52.956;6.796;2023-07-31T09:03:09;17.20;99.90
55203;DHT22;41077;52.956;6.796;2023-07-31T09:05:39;17.20;99.90
55203;DHT22;41077;52.956;6.796;2023-07-31T09:08:05;17.20;99.90
55203;DHT22;41077;52.956;6.796;2023-07-31T09:10:33;17.30;99.90
55203;DHT22;41077;52.956;6.796;2023-07-31T09:12:59;17.30;99.90
55203;DHT22;41077;52.956;6.796;2023-07-31T09:15:25;17.40;99.90
55203;DHT22;41077;52.956;6.796;2023-07-31T09:17:59;17.50;99.90
55203;DHT22;41077;52.956;6.796;2023-07-31T09:20:26;17.50;99.90
55203;DHT22;41077;52.956;6.796;2023-07-31T09:22:52;17.50;99.90
55203;DHT22;41077;52.956;6.796;2023-07-31T09:25:20;17.50;99.90
55203;DHT22;41077;52.956;6.796;2023-07-31T09:28:01;17.60;99.90
55203;DHT22;41077;52.956;6.796;2023-07-31T09:30:28;17.60;99.90
55203;DHT22;41077;52.956;6.796;2023-07-31T09:33:05;17.70;99.90
55203;DHT22;41077;52.956;6.796;2023-07-31T09:35:34;17.60;99.90
55203;DHT22;41077;52.956;6.796;2023-07-31T09:38:04;17.60;99.90
55203;DHT22;41077;52.956;6.796;2023-07-31T09:40:32;17.60;99.90
55203;DHT22;41077;52.956;6.796;2023-07-31T09:43:00;17.60;99.90
55203;DHT22;41077;52.956;6.796;2023-07-31T09:45:26;17.60;99.90
55203;DHT22;41077;52.956;6.796;2023-07-31T09:47:53;17.60;99.90
55203;DHT22;41077;52.956;6.796;2023-07-31T09:50:23;17.60;99.90
55203;DHT22;41077;52.956;6.796;2023-07-31T09:52:50;17.60;99.90
55203;DHT22;41077;52.956;6.796;2023-07-31T09:55:16;17.60;99.90
55203;DHT22;41077;52.956;6.796;2023-07-31T09:57:44;17.80;99.90
55203;DHT22;41077;52.956;6.796;2023-07-31T10:00:12;17.80;99.90
55203;DHT22;41077;52.956;6.796;2023-07-31T10:02:38;17.60;99.90
55203;DHT22;41077;52.956;6.796;2023-07-31T10:05:06;17.60;99.90
55203;DHT22;41077;52.956;6.796;2023-07-31T10:07:39;17.60;99.90
55203;DHT22;41077;52.956;6.796;2023-07-31T10:10:10;17.70;99.90
55203;DHT22;41077;52.956;6.796;2023-07-31T10:12:37;17.80;99.90
55203;DHT22;41077;52.956;6.796;2023-07-31T10:15:04;17.80;99.90
55203;DHT22;41077;52.956;6.796;2023-07-31T10:17:30;17.90;99.90
55203;DHT22;41077;52.956;6.796;2023-07-31T10:19:58;17.90;99.90
55203;DHT22;41077;52.956;6.796;2023-07-31T10:22:29;18.00;99.90
55203;DHT22;41077;52.956;6.796;2023-07-31T10:24:58;18.10;99.90
55203;DHT22;41077;52.956;6.796;2023-07-31T10:27:24;18.20;99.90
55203;DHT22;41077;52.956;6.796;2023-07-31T10:29:50;18.20;99.90
55203;DHT22;41077;52.956;6.796;2023-07-31T10:32:17;18.20;99.90
55203;DHT22;41077;52.956;6.796;2023-07-31T10:34:44;18.20;99.90
55203;DHT22;41077;52.956;6.796;2023-07-31T10:37:23;18.20;99.90
55203;DHT22;41077;52.956;6.796;2023-07-31T10:42:28;18.30;99.90
55203;DHT22;41077;52.956;6.796;2023-07-31T10:45:13;18.40;99.90
55203;DHT22;41077;52.956;6.796;2023-07-31T10:47:44;18.50;99.90
55203;DHT22;41077;52.956;6.796;2023-07-31T10:50:19;18.40;99.90
55203;DHT22;41077;52.956;6.796;2023-07-31T10:52:53;18.30;99.90
55203;DHT22;41077;52.956;6.796;2023-07-31T10:55:27;18.40;99.90
55203;DHT22;41077;52.956;6.796;2023-07-31T10:57:55;18.40;99.90
55203;DHT22;41077;52.956;6.796;2023-07-31T11:00:26;18.50;99.90
55203;DHT22;41077;52.956;6.796;2023-07-31T11:02:59;18.60;99.90
55203;DHT22;41077;52.956;6.796;2023-07-31T11:10:45;18.70;99.90
55203;DHT22;41077;52.956;6.796;2023-07-31T11:13:11;18.70;99.90
55203;DHT22;41077;52.956;6.796;2023-07-31T11:15:38;18.70;99.90
55203;DHT22;41077;52.956;6.796;2023-07-31T11:18:04;18.80;99.90
55203;DHT22;41077;52.956;6.796;2023-07-31T11:20:32;18.90;99.90
55203;DHT22;41077;52.956;6.796;2023-07-31T11:23:02;18.90;99.90
55203;DHT22;41077;52.956;6.796;2023-07-31T11:25:31;18.90;99.90
55203;DHT22;41077;52.956;6.796;2023-07-31T11:28:05;18.90;99.90
55203;DHT22;41077;52.956;6.796;2023-07-31T11:30:31;19.00;99.90
55203;DHT22;41077;52.956;6.796;2023-07-31T11:32:57;18.90;99.90
55203;DHT22;41077;52.956;6.796;2023-07-31T11:35:22;18.80;99.90
55203;DHT22;41077;52.956;6.796;2023-07-31T11:37:48;18.90;99.90
55203;DHT22;41077;52.956;6.796;2023-07-31T11:40:14;18.90;99.90
55203;DHT22;41077;52.956;6.796;2023-07-31T11:42:41;18.80;99.90
55203;DHT22;41077;52.956;6.796;2023-07-31T11:45:08;18.80;99.90
55203;DHT22;41077;52.956;6.796;2023-07-31T11:47:35;18.90;99.90
55203;DHT22;41077;52.956;6.796;2023-07-31T11:50:02;18.90;99.90
55203;DHT22;41077;52.956;6.796;2023-07-31T11:52:36;18.90;99.90
55203;DHT22;41077;52.956;6.796;2023-07-31T11:55:04;18.90;99.90
55203;DHT22;41077;52.956;6.796;2023-07-31T11:57:30;18.90;99.90
55203;DHT22;41077;52.956;6.796;2023-07-31T11:59:57;18.90;99.90
55203;DHT22;41077;52.956;6.796;2023-07-31T12:02:23;19.00;99.90
55203;DHT22;41077;52.956;6.796;2023-07-31T12:04:49;19.00;99.90
55203;DHT22;41077;52.956;6.796;2023-07-31T12:07:15;19.20;99.90
55203;DHT22;41077;52.956;6.796;2023-07-31T12:09:56;19.20;99.90
55203;DHT22;41077;52.956;6.796;2023-07-31T12:12:23;19.20;99.90
55203;DHT22;41077;52.956;6.796;2023-07-31T12:14:49;19.40;99.90
55203;DHT22;41077;52.956;6.796;2023-07-31T12:17:17;19.30;99.90
55203;DHT22;41077;52.956;6.796;2023-07-31T12:19:44;19.40;99.90
55203;DHT22;41077;52.956;6.796;2023-07-31T12:22:16;19.30;99.90
55203;DHT22;41077;52.956;6.796;2023-07-31T12:24:43;19.20;99.90
55203;DHT22;41077;52.956;6.796;2023-07-31T12:27:13;19.00;99.90
55203;DHT22;41077;52.956;6.796;2023-07-31T12:29:39;18.80;99.90
55203;DHT22;41077;52.956;6.796;2023-07-31T12:32:26;18.60;99.90
55203;DHT22;41077;52.956;6.796;2023-07-31T12:34:59;18.50;99.90
55203;DHT22;41077;52.956;6.796;2023-07-31T12:37:25;18.50;99.90
55203;DHT22;41077;52.956;6.796;2023-07-31T12:39:50;18.50;99.90
55203;DHT22;41077;52.956;6.796;2023-07-31T12:42:17;18.50;99.90
55203;DHT22;41077;52.956;6.796;2023-07-31T12:44:43;18.40;99.90
55203;DHT22;41077;52.956;6.796;2023-07-31T12:47:09;18.40;99.90
55203;DHT22;41077;52.956;6.796;2023-07-31T12:49:34;18.40;99.90
55203;DHT22;41077;52.956;6.796;2023-07-31T12:52:00;18.40;99.90
55203;DHT22;41077;52.956;6.796;2023-07-31T12:54:26;18.60;99.90
55203;DHT22;41077;52.956;6.796;2023-07-31T12:56:51;18.70;99.90
55203;DHT22;41077;52.956;6.796;2023-07-31T12:59:17;18.80;99.90
55203;DHT22;41077;52.956;6.796;2023-07-31T13:01:43;18.80;99.90
55203;DHT22;41077;52.956;6.796;2023-07-31T13:04:08;18.90;99.90
55203;DHT22;41077;52.956;6.796;2023-07-31T13:06:34;18.90;99.90
55203;DHT22;41077;52.956;6.796;2023-07-31T13:09:00;19.00;99.90
55203;DHT22;41077;52.956;6.796;2023-07-31T13:11:25;19.00;99.90
55203;DHT22;41077;52.956;6.796;2023-07-31T13:13:51;18.90;99.90
55203;DHT22;41077;52.956;6.796;2023-07-31T13:16:17;18.90;99.90
55203;DHT22;41077;52.956;6.796;2023-07-31T13:18:42;18.90;99.90
55203;DHT22;41077;52.956;6.796;2023-07-31T13:21:08;19.00;99.90
55203;DHT22;41077;52.956;6.796;2023-07-31T13:23:33;19.00;99.90
55203;DHT22;41077;52.956;6.796;2023-07-31T13:25:59;19.00;99.90
55203;DHT22;41077;52.956;6.796;2023-07-31T13:28:25;19.00;99.90
55203;DHT22;41077;52.956;6.796;2023-07-31T13:30:50;19.10;99.90
55203;DHT22;41077;52.956;6.796;2023-07-31T13:33:16;19.10;99.90
55203;DHT22;41077;52.956;6.796;2023-07-31T13:35:42;19.20;99.90
55203;DHT22;41077;52.956;6.796;2023-07-31T13:38:07;19.20;99.90
55203;DHT22;41077;52.956;6.796;2023-07-31T13:40:33;19.10;99.90
55203;DHT22;41077;52.956;6.796;2023-07-31T13:42:59;19.10;99.90
55203;DHT22;41077;52.956;6.796;2023-07-31T13:45:25;19.10;99.90
55203;DHT22;41077;52.956;6.796;2023-07-31T13:47:50;19.20;99.90
55203;DHT22;41077;52.956;6.796;2023-07-31T13:50:17;19.20;99.90
55203;DHT22;41077;52.956;6.796;2023-07-31T13:52:44;19.30;99.90
55203;DHT22;41077;52.956;6.796;2023-07-31T13:55:10;19.30;99.90
55203;DHT22;41077;52.956;6.796;2023-07-31T13:57:36;19.40;99.90
55203;DHT22;41077;52.956;6.796;2023-07-31T14:00:01;19.40;99.90
55203;DHT22;41077;52.956;6.796;2023-07-31T14:02:27;19.40;99.90
55203;DHT22;41077;52.956;6.796;2023-07-31T14:04:53;19.40;99.90
55203;DHT22;41077;52.956;6.796;2023-07-31T14:07:18;19.40;99.90
55203;DHT22;41077;52.956;6.796;2023-07-31T14:09:44;19.30;99.90
55203;DHT22;41077;52.956;6.796;2023-07-31T14:12:10;19.30;99.90
55203;DHT22;41077;52.956;6.796;2023-07-31T14:14:36;19.40;99.90
55203;DHT22;41077;52.956;6.796;2023-07-31T14:17:02;19.40;99.90
55203;DHT22;41077;52.956;6.796;2023-07-31T14:19:28;19.40;99.90
55203;DHT22;41077;52.956;6.796;2023-07-31T14:21:53;19.40;99.90
55203;DHT22;41077;52.956;6.796;2023-07-31T14:24:20;19.50;99.90
55203;DHT22;41077;52.956;6.796;2023-07-31T14:26:46;19.50;99.90
55203;DHT22;41077;52.956;6.796;2023-07-31T14:29:11;19.60;99.90
55203;DHT22;41077;52.956;6.796;2023-07-31T14:31:37;19.60;99.90
55203;DHT22;41077;52.956;6.796;2023-07-31T14:34:03;19.60;99.90
55203;DHT22;41077;52.956;6.796;2023-07-31T14:36:28;19.60;99.90
55203;DHT22;41077;52.956;6.796;2023-07-31T14:38:54;19.70;99.90
55203;DHT22;41077;52.956;6.796;2023-07-31T14:41:20;19.70;99.90
55203;DHT22;41077;52.956;6.796;2023-07-31T14:43:46;19.80;99.90
55203;DHT22;41077;52.956;6.796;2023-07-31T14:46:11;19.80;99.90
55203;DHT22;41077;52.956;6.796;2023-07-31T14:48:37;19.80;99.90
55203;DHT22;41077;52.956;6.796;2023-07-31T14:51:03;19.80;99.90
55203;DHT22;41077;52.956;6.796;2023-07-31T14:53:28;19.80;99.90
55203;DHT22;41077;52.956;6.796;2023-07-31T14:55:54;19.70;99.90
55203;DHT22;41077;52.956;6.796;2023-07-31T14:58:20;19.80;99.90
55203;DHT22;41077;52.956;6.796;2023-07-31T15:00:45;19.80;99.90
55203;DHT22;41077;52.956;6.796;2023-07-31T15:03:11;19.80;99.90
55203;DHT22;41077;52.956;6.796;2023-07-31T15:05:37;19.80;99.90
55203;DHT22;41077;52.956;6.796;2023-07-31T15:08:02;19.70;99.90
55203;DHT22;41077;52.956;6.796;2023-07-31T15:10:28;19.70;99.90
55203;DHT22;41077;52.956;6.796;2023-07-31T15:12:54;19.70;99.90
55203;DHT22;41077;52.956;6.796;2023-07-31T15:15:20;19.70;99.90
55203;DHT22;41077;52.956;6.796;2023-07-31T15:17:45;19.60;99.90
55203;DHT22;41077;52.956;6.796;2023-07-31T15:20:11;19.60;99.90
55203;DHT22;41077;52.956;6.796;2023-07-31T15:22:37;19.50;99.90
55203;DHT22;41077;52.956;6.796;2023-07-31T15:25:03;19.50;99.90
55203;DHT22;41077;52.956;6.796;2023-07-31T15:27:29;19.50;99.90
55203;DHT22;41077;52.956;6.796;2023-07-31T15:29:55;19.50;99.90
55203;DHT22;41077;52.956;6.796;2023-07-31T15:32:21;19.50;99.90
55203;DHT22;41077;52.956;6.796;2023-07-31T15:34:47;19.50;99.90
55203;DHT22;41077;52.956;6.796;2023-07-31T15:37:12;19.50;99.90
55203;DHT22;41077;52.956;6.796;2023-07-31T15:39:38;19.60;99.90
55203;DHT22;41077;52.956;6.796;2023-07-31T15:42:04;19.50;99.90
55203;DHT22;41077;52.956;6.796;2023-07-31T15:44:30;19.50;99.90
55203;DHT22;41077;52.956;6.796;2023-07-31T15:46:56;19.50;99.90
55203;DHT22;41077;52.956;6.796;2023-07-31T15:49:21;19.50;99.90
55203;DHT22;41077;52.956;6.796;2023-07-31T15:51:47;19.60;99.90
55203;DHT22;41077;52.956;6.796;2023-07-31T15:54:13;19.50;99.90
55203;DHT22;41077;52.956;6.796;2023-07-31T15:56:38;19.60;99.90
55203;DHT22;41077;52.956;6.796;2023-07-31T15:59:04;19.60;99.90
55203;DHT22;41077;52.956;6.796;2023-07-31T16:01:29;19.60;99.90
55203;DHT22;41077;52.956;6.796;2023-07-31T16:03:55;19.50;99.90
55203;DHT22;41077;52.956;6.796;2023-07-31T16:06:21;19.50;99.90
55203;DHT22;41077;52.956;6.796;2023-07-31T16:08:46;19.50;99.90
55203;DHT22;41077;52.956;6.796;2023-07-31T16:11:12;19.40;99.90
55203;DHT22;41077;52.956;6.796;2023-07-31T16:13:38;19.40;99.90
55203;DHT22;41077;52.956;6.796;2023-07-31T16:16:04;19.30;99.90
55203;DHT22;41077;52.956;6.796;2023-07-31T16:18:29;19.20;99.90
55203;DHT22;41077;52.956;6.796;2023-07-31T16:20:55;19.20;99.90
55203;DHT22;41077;52.956;6.796;2023-07-31T16:23:22;19.20;99.90
55203;DHT22;41077;52.956;6.796;2023-07-31T16:25:48;19.20;99.90
55203;DHT22;41077;52.956;6.796;2023-07-31T16:28:15;19.10;99.90
55203;DHT22;41077;52.956;6.796;2023-07-31T16:30:41;19.00;99.90
55203;DHT22;41077;52.956;6.796;2023-07-31T16:33:06;19.00;99.90
55203;DHT22;41077;52.956;6.796;2023-07-31T16:35:32;19.00;99.90
55203;DHT22;41077;52.956;6.796;2023-07-31T16:37:58;18.90;99.90
55203;DHT22;41077;52.956;6.796;2023-07-31T16:40:23;18.90;99.90
55203;DHT22;41077;52.956;6.796;2023-07-31T16:42:49;18.90;99.90
55203;DHT22;41077;52.956;6.796;2023-07-31T16:45:15;18.90;99.90
55203;DHT22;41077;52.956;6.796;2023-07-31T16:47:41;18.90;99.90
55203;DHT22;41077;52.956;6.796;2023-07-31T16:50:07;18.90;99.90
55203;DHT22;41077;52.956;6.796;2023-07-31T16:52:33;18.90;99.90
55203;DHT22;41077;52.956;6.796;2023-07-31T16:54:59;18.80;99.90
55203;DHT22;41077;52.956;6.796;2023-07-31T16:57:25;18.80;99.90
55203;DHT22;41077;52.956;6.796;2023-07-31T16:59:51;18.80;99.90
55203;DHT22;41077;52.956;6.796;2023-07-31T17:02:16;18.80;99.90
55203;DHT22;41077;52.956;6.796;2023-07-31T17:04:42;18.70;99.90
55203;DHT22;41077;52.956;6.796;2023-07-31T17:07:08;18.70;99.90
55203;DHT22;41077;52.956;6.796;2023-07-31T17:09:33;18.70;99.90
55203;DHT22;41077;52.956;6.796;2023-07-31T17:11:59;18.70;99.90
55203;DHT22;41077;52.956;6.796;2023-07-31T17:14:25;18.60;99.90